Yuma, AZ

06:11 AM MST on Νοέμβριος 28, 2014 (GMT -0700)
Yuma Marine Corps Air Station | Change Station
CLOSE
Current Station
Airport
Location: Yuma MCAS,
Elevation: 213 ft
Nearby Weather Stations

Elev 213 ft 32.66 °N, 114.61 °W | Updated 14 minutes ago

Αίθριος
Αίθριος
59 ° F
Feels Like 59 ° F
N
7
Ανεμος Μεταβλητός Ανεμος from ΒΑ

Σήμερα
High -- | Low -- ° F
--% Chance of Precip.
Yesterday
High -- | Low -- ° F
Precip. -- in
7:20 AM 5:32 PM
Μηνίσκος, 40% visible
Ατμοσφαιρική Πίεση 29.98 in
Ορατότητα 10.0 Μίλια
Σύννεφα Αίθριος
Σημείο Δρόσου 24 ° F
Υγρασία 26%
Rainfall 0.00 in
Snow Depth Not available.
Υπεριώδης ακτινοβολία (UV) 0 out of 12
Pollen 4.60 out of 12
Air Quality Not available.
Flu Activity Not available.
METAR KNYL 281257Z 04006KT 10SM CLR 15/M04 A2998 RMK AO2 SLP150 T01501044

More Conditions Fewer Conditions

Ατμοσφαιρική Πίεση 29.98 in
Ορατότητα 10.0 Μίλια
Σύννεφα Αίθριος
Σημείο Δρόσου 24 ° F
Υγρασία 26%
Rainfall 0.00 in
Snow Depth Not available.
Υπεριώδης ακτινοβολία (UV) 0 out of 12
Pollen 4.60 out of 12
Air Quality Not available.
Flu Activity Not available.
METAR KNYL 281257Z 04006KT 10SM CLR 15/M04 A2998 RMK AO2 SLP150 T01501044

More Conditions Fewer Conditions

10-Day Weather Forecast

Almanac

Αστρονομία

Nov. 28, 2014 Rise Set
Actual Time
Civil Twilight
Nautical Twilight
Astronomical Twilight
Moon
Length Of Visible Light
Διάρκεια ημέρας
Tomorrow will be .
, % of the Moon is Illuminated

Today's Extremes

State Highs State Lows

Community

WunderPhotos

Upload Photos

1,774,199 photos uploaded!

WunderBlogs® & News

Nearby

Air Quality

  Air Quality AQ Index Pollutant
Not available.

Snow Depth

Station Depth Elevation

Earthquake Activity

City Distance Mag. Time & Date
Minimum magnitude displayed is 2.5.

Coastal Water Temperatures

Τοποθεσία Θερμοκρασία

Nearby Weather Stations